Time;durP1;ratioP1;P1;durP2;ratioP2;P2;SDS_P1;SDS_P2;PMS_P1;PMS_P2;Temp;Humidity;BMP_temperature;BMP_pressure;BME280_temperature;BME280_humidity;BME280_pressure;Samples;Min_cycle;Max_cycle;Signal;HPM_P1;HPM_P2
2023/01/24 00:00:05;;;;;;;15.40;4.43;;;;;;;4.88;75.78;94838.53;5004021;28;20022;-78
2023/01/24 00:02:30;;;;;;;13.20;5.38;;;;;;;4.86;75.92;94830.88;5003043;28;20060;-78
2023/01/24 00:04:56;;;;;;;11.50;4.57;;;;;;;4.84;75.78;94827.69;5004002;28;20332;-78
2023/01/24 00:07:21;;;;;;;8.60;3.67;;;;;;;4.78;75.76;94833.97;5004078;28;20200;-78
2023/01/24 00:09:47;;;;;;;7.88;3.67;;;;;;;4.73;75.78;94832.09;5003768;28;20022;-77
2023/01/24 00:12:12;;;;;;;12.50;4.07;;;;;;;4.75;75.77;94832.63;5004059;28;20204;-77
2023/01/24 00:14:38;;;;;;;7.20;3.90;;;;;;;4.76;75.83;94830.78;5004034;28;20312;-78
2023/01/24 00:17:03;;;;;;;6.07;3.17;;;;;;;4.76;75.87;94831.59;5003763;28;20201;-78
2023/01/24 00:19:29;;;;;;;7.90;3.92;;;;;;;4.71;75.53;94833.41;5003592;28;20026;-78
2023/01/24 00:21:55;;;;;;;6.60;3.63;;;;;;;4.70;76.17;94827.34;5003650;28;20050;-78
2023/01/24 00:24:20;;;;;;;7.72;4.00;;;;;;;4.73;75.48;94823.38;5004008;28;20052;-78
2023/01/24 00:26:46;;;;;;;10.30;4.40;;;;;;;4.71;76.05;94826.28;5003689;28;20030;-78
2023/01/24 00:29:11;;;;;;;8.68;3.95;;;;;;;4.69;76.02;94833.66;5002443;28;20038;-79
2023/01/24 00:31:37;;;;;;;6.10;3.17;;;;;;;4.69;76.03;94822.28;5003412;28;20304;-78
2023/01/24 00:34:02;;;;;;;8.80;3.92;;;;;;;4.71;76.07;94823.63;5003700;28;20097;-78
2023/01/24 00:36:28;;;;;;;6.95;3.70;;;;;;;4.70;75.91;94821.22;5003674;28;20097;-79
2023/01/24 00:38:54;;;;;;;8.35;3.50;;;;;;;4.68;75.98;94812.75;5002721;28;20022;-79
2023/01/24 00:41:20;;;;;;;7.07;3.88;;;;;;;4.67;75.89;94821.75;5003538;28;20098;-79
2023/01/24 00:43:46;;;;;;;10.55;4.75;;;;;;;4.67;75.78;94821.75;5003448;28;20097;-79
2023/01/24 00:46:11;;;;;;;10.25;3.65;;;;;;;4.65;76.07;94818.56;5003679;28;20029;-79
2023/01/24 00:48:37;;;;;;;8.35;3.67;;;;;;;4.67;75.81;94808.53;5003599;28;20033;-79
2023/01/24 00:51:03;;;;;;;7.72;4.10;;;;;;;4.65;75.62;94822.00;5003635;28;20312;-79
2023/01/24 00:53:28;;;;;;;8.77;3.80;;;;;;;4.69;75.66;94824.94;5003451;28;20022;-78
2023/01/24 00:55:54;;;;;;;9.68;4.00;;;;;;;4.66;75.69;94826.25;5003593;28;20022;-78
2023/01/24 00:58:20;;;;;;;10.00;4.47;;;;;;;4.66;75.77;94826.25;5003536;28;20019;-78
2023/01/24 01:00:46;;;;;;;14.68;5.78;;;;;;;4.68;75.65;94829.44;5003515;28;20042;-78
2023/01/24 01:03:17;;;;;;;11.98;4.53;;;;;;;4.66;75.15;94825.41;5003435;28;20026;-78
2023/01/24 01:05:43;;;;;;;11.35;5.32;;;;;;;4.66;75.29;94828.06;5003386;28;20025;-78
2023/01/24 01:08:09;;;;;;;10.60;4.35;;;;;;;4.68;75.22;94831.25;5005147;28;20026;-79
2023/01/24 01:10:35;;;;;;;9.30;4.07;;;;;;;4.69;74.86;94831.00;5007358;28;20026;-79
2023/01/24 01:13:01;;;;;;;7.80;4.10;;;;;;;4.65;75.28;94834.41;5007256;28;20026;-78
2023/01/24 01:15:28;;;;;;;11.10;4.90;;;;;;;4.65;75.18;94837.84;5007375;28;20033;-79
2023/01/24 01:17:54;;;;;;;8.98;4.22;;;;;;;4.58;75.48;94845.16;5007167;28;20046;-78
2023/01/24 01:20:19;;;;;;;8.15;3.30;;;;;;;4.62;75.55;94839.16;5006975;28;20280;-78
2023/01/24 01:22:45;;;;;;;8.95;4.22;;;;;;;4.65;75.79;94839.69;5006876;28;20050;-78
2023/01/24 01:25:10;;;;;;;13.13;3.83;;;;;;;4.65;75.80;94850.25;5007011;28;20018;-78
2023/01/24 01:27:35;;;;;;;8.38;4.63;;;;;;;4.67;75.47;94842.88;5007025;28;20064;-78
2023/01/24 01:30:01;;;;;;;12.65;5.00;;;;;;;4.70;75.32;94843.19;5005709;28;20269;-78
2023/01/24 01:32:26;;;;;;;9.25;4.82;;;;;;;4.71;74.46;94838.69;5006713;28;20340;-79
2023/01/24 01:34:52;;;;;;;11.68;4.35;;;;;;;4.71;74.73;94833.41;5006903;28;20042;-78
2023/01/24 01:37:17;;;;;;;8.90;4.57;;;;;;;4.75;74.02;94840.56;5006777;28;20018;-78
2023/01/24 01:39:43;;;;;;;8.57;5.00;;;;;;;4.73;73.77;94833.94;5006646;28;20186;-78
2023/01/24 01:42:08;;;;;;;12.18;4.93;;;;;;;4.71;73.44;94838.69;5006576;28;20029;-79
2023/01/24 01:44:47;;;;;;;11.00;5.18;;;;;;;4.63;73.41;94843.38;5006569;28;20029;-79
2023/01/24 01:47:32;;;;;;;12.15;5.68;;;;;;;4.60;73.58;94838.59;5006618;28;20030;-79
2023/01/24 01:50:14;;;;;;;8.65;4.10;;;;;;;4.55;73.86;94835.91;5006566;28;20047;-79
2023/01/24 01:52:42;;;;;;;9.15;4.20;;;;;;;4.49;74.14;94826.34;5006300;28;20058;-78
2023/01/24 01:55:20;;;;;;;9.70;5.13;;;;;;;4.43;74.40;94833.41;5006533;28;20034;-78
2023/01/24 01:57:48;;;;;;;9.73;4.78;;;;;;;4.41;74.58;94829.44;5006308;28;20092;-78
2023/01/24 02:00:23;;;;;;;9.68;4.80;;;;;;;4.38;74.86;94832.59;5006236;28;20018;-78
2023/01/24 02:06:16;;;;;;;10.80;4.70;;;;;;;4.34;75.31;94837.56;4946195;29;20031;-78
2023/01/24 02:08:43;;;;;;;10.02;4.53;;;;;;;4.30;75.40;94831.19;4946313;29;20032;-78
2023/01/24 02:16:02;;;;;;;9.73;4.45;;;;;;;4.20;75.74;94829.25;5006256;28;20029;-78
2023/01/24 02:16:39;;;;;;;7.68;3.67;;;;;;;4.18;75.84;94830.53;5005904;28;20034;-79
2023/01/24 02:19:09;;;;;;;9.02;4.07;;;;;;;4.19;75.74;94822.38;5005219;28;20042;-78
2023/01/24 02:21:35;;;;;;;8.25;3.90;;;;;;;4.16;75.86;94828.16;5005885;28;20053;-78
2023/01/24 02:24:12;;;;;;;7.90;3.92;;;;;;;4.17;75.80;94840.31;5005853;28;20252;-78
2023/01/24 02:26:38;;;;;;;8.52;3.90;;;;;;;4.19;75.83;94832.13;5005848;28;20022;-78
2023/01/24 02:29:11;;;;;;;8.02;3.67;;;;;;;4.17;75.74;94842.13;5005538;28;20044;-79
2023/01/24 02:32:00;;;;;;;6.45;3.70;;;;;;;4.18;75.87;94830.53;5005957;28;20022;-79
2023/01/24 02:34:27;;;;;;;8.13;3.45;;;;;;;4.21;75.81;94840.59;5005482;28;20025;-79
2023/01/24 02:37:13;;;;;;;8.90;3.55;;;;;;;4.18;75.80;94838.47;5005807;28;20018;-79
2023/01/24 02:39:57;;;;;;;6.63;3.28;;;;;;;4.17;75.87;94828.94;5005423;28;20023;-79
2023/01/24 02:42:32;;;;;;;8.95;3.22;;;;;;;4.16;76.00;94830.78;5005749;28;20034;-79
2023/01/24 02:45:16;;;;;;;8.40;3.58;;;;;;;4.17;76.12;94835.03;5005449;28;20030;-80
2023/01/24 02:47:46;;;;;;;9.30;3.97;;;;;;;4.18;75.98;94836.63;5005534;28;20327;-80
2023/01/24 02:50:11;;;;;;;8.07;3.80;;;;;;;4.19;76.22;94847.97;5005413;28;20026;-80
2023/01/24 02:55:21;;;;;;;6.57;3.17;;;;;;;4.19;75.92;94832.94;5005476;28;20029;-79
2023/01/24 03:00:32;;;;;;;6.80;3.55;;;;;;;4.27;75.62;94822.97;5005338;28;20038;-78
2023/01/24 03:02:58;;;;;;;6.65;3.13;;;;;;;4.18;75.60;94826.06;5005099;28;20359;-78
2023/01/24 03:05:23;;;;;;;6.78;3.28;;;;;;;4.19;75.55;94829.50;5005280;28;20022;-78
2023/01/24 03:07:49;;;;;;;4.78;2.30;;;;;;;4.16;75.43;94817.59;5003776;28;20030;-79
2023/01/24 03:10:16;;;;;;;7.70;2.55;;;;;;;4.20;75.38;94821.34;5005108;28;20033;-79
2023/01/24 03:34:48;;;;;;;5.05;2.50;;;;;;;4.10;75.16;94821.22;5004695;28;20029;-80
2023/01/24 03:37:16;;;;;;;3.95;2.00;;;;;;;4.09;74.89;94818.84;5004649;28;20026;-80
2023/01/24 03:39:58;;;;;;;7.75;2.70;;;;;;;4.11;74.96;94824.66;5004270;28;20252;-80
2023/01/24 03:42:25;;;;;;;4.30;2.22;;;;;;;4.08;74.88;94810.13;5004582;28;20316;-79
2023/01/24 03:44:51;;;;;;;5.25;2.83;;;;;;;4.10;75.21;94818.59;5004411;28;20026;-79
2023/01/24 03:47:16;;;;;;;6.65;2.50;;;;;;;4.09;75.04;94816.19;5004111;28;20022;-80
2023/01/24 03:52:28;;;;;;;3.85;2.22;;;;;;;4.03;75.01;94812.72;5004121;28;20060;-79
2023/01/24 03:54:59;;;;;;;9.43;2.92;;;;;;;4.01;75.13;94812.19;5004226;28;20197;-79
2023/01/24 03:57:26;;;;;;;4.95;2.60;;;;;;;3.95;75.33;94813.16;5004266;28;20061;-79
2023/01/24 03:59:52;;;;;;;5.50;2.20;;;;;;;3.93;75.29;94802.88;5004327;28;20380;-79
2023/01/24 04:02:17;;;;;;;5.32;2.28;;;;;;;3.89;75.48;94806.22;5004096;28;20025;-79
2023/01/24 04:07:27;;;;;;;3.85;2.45;;;;;;;3.79;75.47;94807.72;5004076;28;20024;-79
2023/01/24 04:09:53;;;;;;;5.57;2.67;;;;;;;3.75;75.58;94801.34;5004256;28;20062;-80
2023/01/24 04:12:18;;;;;;;4.30;2.40;;;;;;;3.68;75.80;94800.72;5003823;28;20018;-80
2023/01/24 04:14:44;;;;;;;4.68;2.53;;;;;;;3.71;75.93;94796.81;5004131;28;20022;-80
2023/01/24 04:17:10;;;;;;;4.68;2.22;;;;;;;3.72;76.06;94793.91;5004048;28;20217;-80
2023/01/24 04:19:35;;;;;;;4.28;2.50;;;;;;;3.70;76.02;94803.91;5003859;28;20057;-79
2023/01/24 04:22:01;;;;;;;5.38;2.53;;;;;;;3.67;76.18;94807.06;5003752;28;20053;-78
2023/01/24 04:24:26;;;;;;;4.65;2.33;;;;;;;3.69;76.18;94799.69;5003928;28;20078;-79
2023/01/24 04:26:52;;;;;;;5.43;3.13;;;;;;;3.69;76.18;94794.41;5003996;28;20033;-78
2023/01/24 04:29:17;;;;;;;3.65;2.17;;;;;;;3.72;76.09;94793.13;5003573;28;20033;-78
2023/01/24 04:31:43;;;;;;;4.75;2.38;;;;;;;3.69;75.80;94797.06;5003733;28;20093;-78
2023/01/24 04:34:08;;;;;;;4.80;2.83;;;;;;;3.66;76.02;94797.53;5003586;28;20346;-78
2023/01/24 04:36:33;;;;;;;5.43;2.88;;;;;;;3.68;76.09;94810.47;5003753;28;20089;-78
2023/01/24 04:38:59;;;;;;;4.72;2.38;;;;;;;3.67;75.88;94803.63;5003548;28;20029;-78
2023/01/24 04:41:24;;;;;;;4.82;2.33;;;;;;;3.67;75.73;94809.69;5003642;28;20026;-78
2023/01/24 04:43:50;;;;;;;5.25;2.72;;;;;;;3.63;75.86;94811.22;5001965;28;20033;-78
2023/01/24 04:46:15;;;;;;;5.57;2.50;;;;;;;3.56;75.99;94807.97;5003650;28;20034;-79
2023/01/24 04:48:42;;;;;;;7.88;3.35;;;;;;;3.57;76.12;94806.94;5003629;28;20097;-78
2023/01/24 04:51:09;;;;;;;6.00;3.30;;;;;;;3.59;76.27;94810.91;5003479;28;20030;-78
2023/01/24 04:53:38;;;;;;;8.65;5.22;;;;;;;3.61;75.99;94808.03;5003167;28;20027;-78
2023/01/24 04:56:04;;;;;;;7.57;4.05;;;;;;;3.65;75.88;94811.78;5003351;28;20026;-79
2023/01/24 04:58:31;;;;;;;7.68;3.78;;;;;;;3.64;75.93;94815.44;5002312;28;20022;-79
2023/01/24 05:00:56;;;;;;;11.98;4.15;;;;;;;3.62;76.10;94812.25;5003629;28;20030;-78
2023/01/24 05:03:21;;;;;;;5.90;3.15;;;;;;;3.60;76.19;94819.59;5003418;28;20030;-78
2023/01/24 05:05:51;;;;;;;5.57;2.60;;;;;;;3.64;76.07;94819.91;5003360;28;20061;-78
2023/01/24 05:08:16;;;;;;;6.28;2.53;;;;;;;3.69;75.86;94830.53;5003407;28;20038;-78
2023/01/24 05:10:42;;;;;;;6.38;2.80;;;;;;;3.69;75.60;94826.06;5003439;28;20037;-78
2023/01/24 05:13:08;;;;;;;6.03;2.63;;;;;;;3.72;75.46;94828.19;5003260;28;20034;-78
2023/01/24 05:15:35;;;;;;;5.63;2.72;;;;;;;3.74;75.50;94834.00;5003355;28;20037;-78
2023/01/24 05:18:01;;;;;;;7.35;3.05;;;;;;;3.74;75.40;94841.94;5003257;28;20018;-78
2023/01/24 05:20:27;;;;;;;7.50;3.00;;;;;;;3.76;75.17;94839.84;5003176;28;20100;-79
2023/01/24 05:22:56;;;;;;;4.85;2.90;;;;;;;3.78;75.47;94848.31;5003227;28;20309;-79
2023/01/24 05:25:21;;;;;;;6.03;3.10;;;;;;;3.79;75.20;94849.91;5003466;28;20094;-80
2023/01/24 05:27:47;;;;;;;4.50;2.67;;;;;;;3.87;75.09;94866.31;5003210;28;20050;-79
2023/01/24 05:30:13;;;;;;;4.97;2.45;;;;;;;3.92;74.87;94876.97;5003200;28;20034;-79
2023/01/24 05:32:38;;;;;;;5.90;2.83;;;;;;;3.94;74.61;94872.22;5002946;28;20221;-79
2023/01/24 05:35:04;;;;;;;6.82;3.17;;;;;;;3.98;74.49;94870.69;5002885;28;20061;-80
2023/01/24 05:37:30;;;;;;;8.02;2.83;;;;;;;4.01;74.19;94862.31;5003194;28;20022;-80
2023/01/24 05:39:56;;;;;;;6.70;2.60;;;;;;;4.04;74.27;94868.91;5003140;28;20029;-79
2023/01/24 05:42:21;;;;;;;5.72;3.25;;;;;;;4.03;74.33;94876.03;5003080;28;20022;-79
2023/01/24 05:44:46;;;;;;;9.93;3.63;;;;;;;4.05;74.26;94870.50;5002818;28;20029;-79
2023/01/24 05:47:12;;;;;;;12.80;3.63;;;;;;;4.08;74.08;94864.75;5001562;28;20060;-79
2023/01/24 05:49:37;;;;;;;15.98;4.57;;;;;;;4.06;73.89;94880.81;5002703;28;20121;-80
2023/01/24 05:52:03;;;;;;;6.45;3.25;;;;;;;4.04;74.27;94874.97;5002819;28;20094;-80
2023/01/24 05:54:28;;;;;;;9.68;3.50;;;;;;;4.07;74.13;94886.88;5002438;28;20324;-79
2023/01/24 05:56:54;;;;;;;8.40;4.20;;;;;;;4.03;74.31;94889.22;5006628;28;20073;-79
2023/01/24 05:59:19;;;;;;;8.48;3.33;;;;;;;4.01;74.63;94886.03;5006403;28;20190;-79
2023/01/24 06:01:45;;;;;;;11.25;6.47;;;;;;;4.03;74.79;94897.16;5005019;28;20471;-79
2023/01/24 06:04:11;;;;;;;10.30;4.28;;;;;;;4.01;74.53;94889.47;5006177;28;20022;-79
2023/01/24 06:06:36;;;;;;;10.60;3.80;;;;;;;4.05;74.33;94889.78;5004979;28;20026;-79
2023/01/24 06:09:02;;;;;;;8.95;3.15;;;;;;;4.07;74.43;94900.88;5006199;28;20026;-79
2023/01/24 06:11:27;;;;;;;7.22;3.85;;;;;;;4.09;74.28;94901.44;5006027;28;20057;-79
2023/01/24 06:13:54;;;;;;;12.48;3.10;;;;;;;4.11;74.30;94898.53;5006277;28;20033;-79
2023/01/24 06:16:21;;;;;;;11.38;3.47;;;;;;;4.12;74.10;94895.66;5004520;28;20045;-79
2023/01/24 06:18:48;;;;;;;16.30;4.25;;;;;;;4.12;74.02;94898.28;5004874;28;20278;-80
2023/01/24 06:21:45;;;;;;;13.13;3.10;;;;;;;4.04;74.46;94901.38;5004641;28;20260;-79
2023/01/24 06:24:15;;;;;;;5.78;3.28;;;;;;;4.03;74.38;94907.69;5005971;28;20046;-79
2023/01/24 06:26:40;;;;;;;6.40;4.35;;;;;;;4.02;74.57;94921.91;5005880;28;20037;-80
2023/01/24 06:29:08;;;;;;;6.03;3.60;;;;;;;4.02;74.99;94919.28;5005704;28;20023;-79
2023/01/24 06:31:49;;;;;;;7.50;3.75;;;;;;;4.04;75.16;94922.47;5005660;28;20090;-79
2023/01/24 06:34:29;;;;;;;7.25;4.30;;;;;;;3.99;75.54;94925.06;5005538;28;20030;-79
2023/01/24 06:37:03;;;;;;;6.25;3.30;;;;;;;3.95;75.39;94923.97;5005846;28;20030;-80
2023/01/24 06:39:29;;;;;;;7.70;4.55;;;;;;;3.92;75.58;94927.06;5005724;28;20022;-80
2023/01/24 06:41:55;;;;;;;6.90;3.88;;;;;;;3.89;75.84;94928.38;5005651;28;20065;-80
2023/01/24 06:44:21;;;;;;;5.40;3.55;;;;;;;3.89;75.84;94936.28;5005708;28;20022;-80
2023/01/24 06:46:47;;;;;;;6.85;3.88;;;;;;;3.77;76.11;94932.94;5004272;28;20022;-80
2023/01/24 06:49:12;;;;;;;10.15;4.22;;;;;;;3.76;76.79;94939.25;5005223;28;20229;-80
2023/01/24 06:51:38;;;;;;;6.57;4.07;;;;;;;3.78;76.94;94937.97;5004080;28;20328;-79
2023/01/24 06:54:03;;;;;;;8.95;5.18;;;;;;;3.79;76.87;94934.31;5005390;28;20221;-79
2023/01/24 06:56:29;;;;;;;11.43;4.95;;;;;;;3.83;76.94;94939.88;5005049;28;20367;-79
2023/01/24 06:58:54;;;;;;;7.10;4.45;;;;;;;3.85;76.65;94945.72;5005575;28;20350;-79
2023/01/24 07:01:20;;;;;;;11.02;5.10;;;;;;;3.84;76.41;94941.47;5005314;28;20339;-79
2023/01/24 07:03:45;;;;;;;8.95;5.55;;;;;;;3.83;76.22;94950.44;5005214;28;20030;-79
2023/01/24 07:06:11;;;;;;;10.05;5.60;;;;;;;3.78;76.71;94953.78;5004599;28;20018;-79
2023/01/24 07:08:36;;;;;;;15.57;6.28;;;;;;;3.77;77.15;94951.41;5005178;28;20025;-80
2023/01/24 07:11:02;;;;;;;15.95;6.88;;;;;;;3.74;77.44;94950.03;5005023;28;20225;-80
2023/01/24 07:13:27;;;;;;;14.77;7.03;;;;;;;3.76;77.40;94961.16;5005006;28;20050;-80
2023/01/24 07:15:53;;;;;;;24.27;7.90;;;;;;;3.77;77.29;94960.13;5005001;28;20038;-79
2023/01/24 07:18:18;;;;;;;19.83;8.68;;;;;;;3.72;77.23;94954.75;5004782;28;20022;-79
2023/01/24 07:20:44;;;;;;;19.05;9.82;;;;;;;3.74;77.35;94954.53;5004605;28;20077;-79
2023/01/24 07:23:23;;;;;;;17.20;8.57;;;;;;;3.67;77.39;94967.09;5004667;28;20056;-79
2023/01/24 07:25:49;;;;;;;16.45;8.10;;;;;;;3.69;77.73;94960.53;5003803;28;20060;-78
2023/01/24 07:28:15;;;;;;;22.27;10.75;;;;;;;3.72;77.94;94964.50;5003192;28;20026;-79
2023/01/24 07:30:40;;;;;;;23.98;11.20;;;;;;;3.68;78.28;94974.75;5002630;28;20316;-79
2023/01/24 07:33:06;;;;;;;15.85;7.90;;;;;;;3.75;78.32;94958.78;5002703;28;20022;-79
2023/01/24 07:35:31;;;;;;;11.25;6.00;;;;;;;3.76;77.96;94966.41;5002635;28;20033;-79
2023/01/24 07:37:57;;;;;;;20.70;7.13;;;;;;;3.81;77.87;94977.06;5002756;28;20021;-79
2023/01/24 07:40:22;;;;;;;15.15;6.00;;;;;;;3.75;77.74;94980.66;5003664;28;20041;-79
2023/01/24 07:42:48;;;;;;;10.05;5.63;;;;;;;3.70;77.99;94982.41;5004423;28;20247;-79
2023/01/24 07:45:13;;;;;;;14.35;5.32;;;;;;;3.67;77.76;94980.28;5004144;28;20015;-83
2023/01/24 07:47:38;;;;;;;11.98;5.97;;;;;;;3.63;77.60;94993.13;5003170;28;20030;-80
2023/01/24 07:50:04;;;;;;;13.38;5.70;;;;;;;3.62;77.18;94988.88;5003077;28;20030;-79
2023/01/24 07:52:30;;;;;;;10.65;5.30;;;;;;;3.58;77.09;94979.88;5004342;28;20018;-79
2023/01/24 07:54:55;;;;;;;9.93;4.75;;;;;;;3.56;77.41;94987.22;5003982;28;20018;-83
2023/01/24 07:57:21;;;;;;;11.55;6.03;;;;;;;3.54;77.80;94990.13;5004523;28;20098;-83
2023/01/24 07:59:46;;;;;;;11.32;4.78;;;;;;;3.56;78.03;94993.31;5004024;28;20018;-82
2023/01/24 08:02:12;;;;;;;10.77;5.20;;;;;;;3.62;77.97;94996.81;5003811;28;20224;-84
2023/01/24 08:04:38;;;;;;;12.48;5.63;;;;;;;3.63;77.72;94993.13;5003433;28;20098;-83
2023/01/24 08:07:19;;;;;;;8.60;4.80;;;;;;;3.65;77.64;95000.81;5003664;28;20022;-83
2023/01/24 08:09:46;;;;;;;9.80;5.13;;;;;;;3.64;77.89;94997.34;5003624;28;20026;-83
2023/01/24 08:12:12;;;;;;;8.45;4.82;;;;;;;3.69;77.64;94991.38;5003448;28;20026;-84
2023/01/24 08:14:38;;;;;;;10.48;3.90;;;;;;;3.70;77.57;94995.59;5002534;28;20308;-85
2023/01/24 08:17:03;;;;;;;8.52;3.15;;;;;;;3.73;76.84;94998.56;5001909;28;20033;-85
2023/01/24 08:19:29;;;;;;;6.15;3.30;;;;;;;3.71;76.33;95002.47;5003707;28;20022;-82
2023/01/24 08:21:54;;;;;;;9.05;3.35;;;;;;;3.71;76.44;95005.91;5003509;28;20319;-87
2023/01/24 08:24:20;;;;;;;8.27;3.90;;;;;;;3.70;76.58;95009.56;5002455;28;20029;-85
2023/01/24 08:26:48;;;;;;;12.00;3.80;;;;;;;3.71;77.02;94994.56;5003626;28;20320;-83
2023/01/24 08:29:14;;;;;;;10.10;3.92;;;;;;;3.69;77.15;95010.63;5003505;28;20026;-84
2023/01/24 08:31:40;;;;;;;9.00;4.50;;;;;;;3.75;77.28;95008.88;5003470;28;20268;-83
2023/01/24 08:34:09;;;;;;;11.15;3.75;;;;;;;3.80;77.25;95004.44;5003532;28;20019;-82
2023/01/24 08:36:34;;;;;;;13.45;4.88;;;;;;;3.89;76.53;95006.66;5003585;28;20022;-85
2023/01/24 08:39:00;;;;;;;6.78;3.70;;;;;;;3.92;75.82;95016.75;5003210;28;20018;-85
2023/01/24 08:41:25;;;;;;;7.68;3.88;;;;;;;3.89;76.02;95010.13;5003721;28;20022;-84
2023/01/24 08:43:54;;;;;;;6.22;3.65;;;;;;;3.92;75.82;95014.13;5003611;28;20026;-83
2023/01/24 08:46:19;;;;;;;15.50;4.00;;;;;;;3.89;75.72;95012.78;5003337;28;20368;-81
2023/01/24 08:48:45;;;;;;;8.38;4.13;;;;;;;3.87;75.74;95014.84;5003148;28;20042;-82
2023/01/24 08:51:10;;;;;;;8.48;4.18;;;;;;;3.86;76.20;95020.34;5002260;28;20053;-83
2023/01/24 08:53:35;;;;;;;9.43;3.63;;;;;;;3.87;76.17;95012.22;5003340;28;20291;-82
2023/01/24 08:56:01;;;;;;;7.75;4.22;;;;;;;3.87;76.43;95016.66;5003328;28;20216;-84
2023/01/24 08:58:27;;;;;;;9.60;4.93;;;;;;;3.87;76.49;95014.03;5003124;28;20209;-81
2023/01/24 09:00:52;;;;;;;10.27;4.57;;;;;;;3.84;76.63;95020.59;5003305;28;20247;-82
2023/01/24 09:03:18;;;;;;;11.98;4.47;;;;;;;3.84;76.44;95017.16;5003251;28;20022;-82
2023/01/24 09:05:44;;;;;;;7.00;4.03;;;;;;;3.77;76.47;95015.50;5001997;28;20022;-82
2023/01/24 09:08:10;;;;;;;10.02;3.65;;;;;;;3.74;76.34;95013.31;5002999;28;20026;-86
2023/01/24 09:10:35;;;;;;;9.32;4.53;;;;;;;3.72;76.65;95006.72;5003045;28;20105;-85
2023/01/24 09:13:02;;;;;;;8.52;4.07;;;;;;;3.76;77.17;95005.97;5003194;28;20065;-85
2023/01/24 09:15:27;;;;;;;10.07;4.60;;;;;;;3.76;77.10;95013.88;5001836;28;20026;-82
2023/01/24 09:17:53;;;;;;;12.88;4.50;;;;;;;3.80;77.09;95008.94;5003125;28;20038;-82
2023/01/24 09:20:51;;;;;;;;;;;;;;;;;;;;;
2023/01/24 09:23:17;;;;;;;9.30;4.70;;;;;;;3.73;77.06;95014.38;4999728;28;20070;-83
2023/01/24 09:25:50;;;;;;;10.55;5.43;;;;;;;3.74;77.66;95015.97;5003166;28;20316;-80
2023/01/24 09:28:19;;;;;;;15.57;5.93;;;;;;;3.76;77.87;95011.25;5003464;28;20058;-83
2023/01/24 09:30:46;;;;;;;14.35;5.32;;;;;;;3.84;77.50;95012.69;5006732;28;20212;-83
2023/01/24 09:33:11;;;;;;;16.92;6.03;;;;;;;3.91;77.48;95017.78;5005533;28;20320;-82
2023/01/24 09:35:36;;;;;;;17.02;5.97;;;;;;;3.97;77.45;95019.47;5006724;28;20024;-82
2023/01/24 09:38:03;;;;;;;9.90;4.03;;;;;;;3.92;77.41;95000.94;5006626;28;20117;-83
2023/01/24 09:40:43;;;;;;;5.90;3.20;;;;;;;3.90;76.67;95005.66;5006592;28;20014;-83
2023/01/24 09:43:46;;;;;;;9.30;3.83;;;;;;;3.88;76.71;95008.53;5006639;28;20018;-83
2023/01/24 09:46:11;;;;;;;6.68;3.78;;;;;;;3.87;77.14;95008.75;5006482;28;20260;-83
2023/01/24 09:48:37;;;;;;;6.47;3.58;;;;;;;3.94;77.18;95004.91;5006290;28;20035;-84
2023/01/24 09:51:25;;;;;;;5.60;3.35;;;;;;;3.90;76.72;95005.66;5005117;28;20117;-83
2023/01/24 09:53:56;;;;;;;5.20;3.25;;;;;;;3.85;77.28;95001.09;5006486;28;20042;-84
2023/01/24 09:56:30;;;;;;;7.00;3.47;;;;;;;3.80;77.14;94998.38;5006457;28;20022;-84
2023/01/24 09:59:19;;;;;;;6.35;3.30;;;;;;;3.92;77.04;95007.00;5006466;28;20019;-83
2023/01/24 10:01:47;;;;;;;8.82;2.70;;;;;;;4.00;76.81;94997.88;5005408;28;20022;-83
2023/01/24 10:04:30;;;;;;;6.50;3.08;;;;;;;4.02;76.99;94993.16;5006366;28;20093;-84
2023/01/24 10:07:15;;;;;;;15.10;3.90;;;;;;;4.01;77.10;94994.22;5006319;28;20037;-85
2023/01/24 10:09:59;;;;;;;7.03;3.42;;;;;;;4.08;77.13;94992.19;5005991;28;20028;-83
2023/01/24 10:12:52;;;;;;;5.88;3.20;;;;;;;4.06;77.21;94986.34;5005932;28;20026;-83
2023/01/24 10:15:33;;;;;;;8.90;4.35;;;;;;;4.10;77.27;94992.72;5004068;28;20332;-83
2023/01/24 10:18:20;;;;;;;9.27;4.53;;;;;;;4.17;77.51;94989.91;5005745;28;20085;-83
2023/01/24 10:21:07;;;;;;;5.70;3.05;;;;;;;4.24;77.45;94990.53;5005817;28;20049;-84
2023/01/24 10:23:37;;;;;;;7.07;3.00;;;;;;;4.17;76.58;94982.81;5005793;28;20041;-83
2023/01/24 10:26:21;;;;;;;5.90;2.97;;;;;;;4.22;76.83;94985.50;5006028;28;20022;-83
2023/01/24 10:28:51;;;;;;;4.47;2.60;;;;;;;4.28;76.62;94978.44;5005163;28;20056;-83
2023/01/24 10:31:36;;;;;;;7.18;2.35;;;;;;;4.30;76.76;94980.84;5004115;28;20030;-83
2023/01/24 10:34:14;;;;;;;4.07;2.38;;;;;;;4.34;76.47;94984.59;5005941;28;20022;-83
2023/01/24 10:36:44;;;;;;;4.28;2.38;;;;;;;4.33;76.38;94975.84;5005627;28;20018;-83
2023/01/24 10:39:11;;;;;;;4.75;2.05;;;;;;;4.36;76.40;94979.88;5005812;28;20248;-83
2023/01/24 10:41:37;;;;;;;3.67;2.13;;;;;;;4.40;76.72;94978.31;5005014;28;20018;-83
2023/01/24 10:44:13;;;;;;;4.05;2.53;;;;;;;4.45;75.65;94975.72;5005266;28;20023;-83
2023/01/24 10:47:04;;;;;;;5.05;2.53;;;;;;;4.50;75.85;94973.16;5005755;28;20256;-83
2023/01/24 10:49:36;;;;;;;7.80;2.05;;;;;;;4.37;75.37;94970.88;4997199;28;20034;-83
2023/01/24 10:52:13;;;;;;;3.70;2.20;;;;;;;4.37;75.54;94984.06;5005534;28;20024;-85
2023/01/24 10:55:00;;;;;;;4.13;2.15;;;;;;;4.39;75.61;94964.31;5005174;28;20265;-85
2023/01/24 10:57:31;;;;;;;11.18;2.75;;;;;;;4.34;75.75;94979.31;5005561;28;20029;-85
2023/01/24 11:00:29;;;;;;;5.18;2.50;;;;;;;4.33;75.50;94977.69;5005488;28;20320;-85
2023/01/24 11:03:03;;;;;;;5.63;2.88;;;;;;;4.31;75.83;94974.50;5005434;28;20022;-85
2023/01/24 11:05:45;;;;;;;5.78;2.50;;;;;;;4.37;76.10;94970.88;5003932;28;20018;-85
2023/01/24 11:08:21;;;;;;;7.82;3.50;;;;;;;4.37;75.34;94966.38;5005236;28;20033;-85
2023/01/24 11:10:51;;;;;;;6.13;3.22;;;;;;;4.37;75.11;94971.66;5004767;28;20034;-85
2023/01/24 11:13:30;;;;;;;4.88;2.58;;;;;;;4.37;74.67;94971.66;5004749;28;20265;-85
2023/01/24 11:16:02;;;;;;;7.45;2.35;;;;;;;4.30;74.89;94960.53;5004014;28;20026;-84
2023/01/24 11:18:30;;;;;;;4.30;2.13;;;;;;;4.26;74.94;94963.91;5004966;28;20026;-85
2023/01/24 11:21:18;;;;;;;3.92;2.13;;;;;;;4.21;74.71;94965.44;5004877;28;20046;-85
2023/01/24 11:23:44;;;;;;;4.70;2.03;;;;;;;4.19;74.96;94956.97;5003444;28;20073;-85
2023/01/24 11:26:23;;;;;;;3.05;1.95;;;;;;;4.16;75.24;94951.38;5004886;28;20026;-84
2023/01/24 11:29:00;;;;;;;7.70;2.95;;;;;;;4.15;75.55;94953.22;5004678;28;20034;-85
2023/01/24 11:31:30;;;;;;;6.63;3.25;;;;;;;4.17;75.65;94945.88;5004655;28;20028;-77
2023/01/24 11:34:17;;;;;;;5.03;2.20;;;;;;;4.18;75.38;94944.00;5004598;28;20030;-76
2023/01/24 11:37:04;;;;;;;6.60;2.70;;;;;;;4.22;75.31;94945.13;5004465;28;20220;-76
2023/01/24 11:39:53;;;;;;;5.30;2.20;;;;;;;4.18;75.21;94942.16;5004637;28;20026;-77
2023/01/24 11:42:30;;;;;;;4.15;1.90;;;;;;;4.14;75.29;94942.91;4995054;28;20038;-76
2023/01/24 11:45:01;;;;;;;4.82;2.35;;;;;;;4.12;75.41;94945.00;5004568;28;20088;-78
2023/01/24 11:47:34;;;;;;;4.85;1.80;;;;;;;4.08;75.37;94941.25;5004354;28;20137;-77
2023/01/24 11:50:33;;;;;;;6.05;2.38;;;;;;;4.14;75.70;94941.06;5004162;28;20105;-77
2023/01/24 11:53:24;;;;;;;4.72;2.25;;;;;;;4.14;75.76;94935.78;5003334;28;20049;-78
2023/01/24 11:56:00;;;;;;;5.43;2.40;;;;;;;4.12;75.17;94943.16;5004035;28;20038;-77
2023/01/24 11:58:47;;;;;;;6.50;2.67;;;;;;;4.18;75.71;94933.47;5004422;28;20014;-77
2023/01/24 12:01:35;;;;;;;4.32;2.60;;;;;;;4.24;75.31;94939.59;5003956;28;20324;-77
2023/01/24 12:04:06;;;;;;;10.00;4.10;;;;;;;4.26;75.08;94930.38;4994128;28;20344;-77
2023/01/24 12:07:00;;;;;;;7.07;3.45;;;;;;;4.22;74.81;94939.84;5003727;28;20065;-76
2023/01/24 12:09:29;;;;;;;9.00;4.43;;;;;;;4.19;74.83;94946.41;5003455;28;20030;-77
2023/01/24 12:12:32;;;;;;;8.05;4.22;;;;;;;4.22;75.26;94945.91;5003743;28;20022;-77
2023/01/24 12:15:19;;;;;;;7.20;2.40;;;;;;;4.25;75.27;94946.47;5003822;28;20022;-77
2023/01/24 12:18:03;;;;;;;4.18;2.03;;;;;;;4.29;74.90;94950.19;5004064;28;20030;-77
2023/01/24 12:20:38;;;;;;;4.97;2.30;;;;;;;4.30;74.78;94951.81;5002421;28;20807;-77
2023/01/24 12:23:29;;;;;;;6.22;3.38;;;;;;;4.32;74.35;94949.72;5003824;28;20194;-76
2023/01/24 12:26:00;;;;;;;3.35;2.10;;;;;;;4.33;74.26;94944.19;5003697;28;20049;-76
2023/01/24 12:28:34;;;;;;;5.10;2.67;;;;;;;4.32;74.33;94945.22;5003720;28;20057;-75
2023/01/24 12:31:03;;;;;;;5.32;2.60;;;;;;;4.31;74.54;94943.63;5003725;28;20093;-76
2023/01/24 12:33:40;;;;;;;7.20;2.67;;;;;;;4.30;74.26;94949.16;5003440;28;20041;-76